首页
METAR-TAF:

METAR-TAF

机场 :

大马士革, 叙利亚

大马士革国际机场

纬度: 33-25N, 经度: 036-31E, 海拔: 608米

当前天气观测

该预报发布于46分钟前的01:00 UTC
风速18节,风向西南
温度 6°C
湿度 75%
气压 1000 hPa
能见度10公里或以上
多云层高于3000英尺
阴天层高于10000英尺

METAR: OSDI 190100Z 23018KT 9999 BKN030 OVC100 06/02 Q1000

时间: 03:46 (01:46 UTC)

预报

该预报发布于3小时和46分钟前的22:00 UTC
预报有效从19日的 00点(UTC)到 19日的 20点(UTC)
风速20节,风向西,有时为35节阵风
能見度: 6000
散云层高于3000英尺
多云层高于10000英尺
散云层高于2500英尺, 积雨云.
多云层高于3000英尺
阴天层高于9000英尺
阵雨

TAF: OSDI 182200Z 19002006 23015KT 6000 SCT030 BKN100 TEMPIO 1900/1918 26020G35KT 3000TS SHRA SCT025CB BKN030 OVC090

超过4000个机场的气象观测和天气预报(METAR&TAF报告)。

可查询的气象台以黄色和红色小点在地图上表示。

将鼠标移到小点上方,可查看气象台名称。

然后点击查看天气观测和预报。

如需切换地图:点击带黑十字的绿色按钮放大地图;点击带横线的绿色按钮缩小地图;或者点击绿色箭头查看邻近地区的地图。


METAR-TAF: